Decoded Metar for DTNH ( in ) (IATA:) | Meteo·Mobile Aviation Weather
aviador You're here:

DTNH Decoded Metar

in
Report Time2018-09-25 15:00:00
UTC Time2018-09-25 15:28:39
Flight Rules vfr VFR
Wind090° at 11 kt
W.Decomp.*RWY 09: 11.0 kt HW -0 kt LCW
W.Rank090° ranks 1
Current wind is above 090° avg. (10.4)
Visibility9999 m
Phenomena:N/A
Clouds:N/A
Expected CloudBase > 3,200 ft AGL from Temp-Dew spread
CeilingNone
Temp28°C
Dew Point20°C (62% RH)
Heat Index29.7°C
AAT27.7°C
QNH1019 hPa
Raw Report
METAR DTNH 251500Z 09011KT CAVOK 28/20 Q1019=

Extra information for DTNH:More info

Social comments